Time;durP1;ratioP1;P1;durP2;ratioP2;P2;SDS_P1;SDS_P2;PMS_P1;PMS_P2;Temp;Humidity;BMP_temperature;BMP_pressure;BME280_temperature;BME280_humidity;BME280_pressure;Samples;Min_cycle;Max_cycle;Signal;HPM_P1;HPM_P2
2023/09/26 00:01:30;;;;;;;16.70;3.40;;;16.00;99.90;;;;;;5132102;27;20095;-78
2023/09/26 00:03:55;;;;;;;21.45;3.80;;;16.00;99.90;;;;;;5113371;27;20365;-77
2023/09/26 00:06:22;;;;;;;13.88;3.20;;;16.00;99.90;;;;;;5113284;27;20015;-78
2023/09/26 00:08:49;;;;;;;17.25;3.53;;;16.00;99.90;;;;;;5131203;27;20023;-77
2023/09/26 00:11:16;;;;;;;15.90;3.40;;;16.10;99.90;;;;;;5131869;27;20027;-77
2023/09/26 00:13:43;;;;;;;15.75;3.53;;;16.10;99.90;;;;;;5131227;27;20023;-76
2023/09/26 00:16:12;;;;;;;13.82;3.63;;;16.10;99.90;;;;;;5131457;27;20027;-78
2023/09/26 00:18:40;;;;;;;17.58;3.95;;;16.00;99.90;;;;;;5131077;27;20028;-76
2023/09/26 00:21:10;;;;;;;14.10;3.53;;;16.00;99.90;;;;;;5131167;27;20391;-77
2023/09/26 00:23:36;;;;;;;18.42;3.70;;;16.10;99.90;;;;;;5130709;27;20035;-78
2023/09/26 00:26:07;;;;;;;18.38;3.22;;;16.00;99.90;;;;;;5131412;27;20027;-78
2023/09/26 00:28:33;;;;;;;20.63;4.18;;;16.10;99.90;;;;;;5113534;27;20023;-77
2023/09/26 00:31:04;;;;;;;12.60;3.17;;;16.10;99.90;;;;;;5112797;28;20337;-77
2023/09/26 00:33:29;;;;;;;14.95;3.38;;;16.10;99.90;;;;;;5130795;27;20423;-78
2023/09/26 00:35:55;;;;;;;11.48;3.10;;;16.10;99.90;;;;;;5131047;27;20055;-76
2023/09/26 00:38:22;;;;;;;13.02;3.42;;;16.10;99.90;;;;;;5131055;27;20058;-77
2023/09/26 00:40:47;;;;;;;16.13;3.75;;;16.10;99.90;;;;;;5112020;28;20031;-78
2023/09/26 00:43:23;;;;;;;14.90;3.75;;;16.10;99.90;;;;;;5113166;28;20023;-77
2023/09/26 00:45:54;;;;;;;17.38;3.75;;;16.10;99.90;;;;;;5130437;28;20536;-76
2023/09/26 00:48:24;;;;;;;15.95;3.85;;;16.00;99.90;;;;;;5131393;28;20046;-77
2023/09/26 00:50:52;;;;;;;18.67;4.10;;;16.00;99.90;;;;;;5129729;28;20036;-78
2023/09/26 00:53:19;;;;;;;20.00;4.13;;;16.00;99.90;;;;;;5131929;28;20045;-76
2023/09/26 00:55:45;;;;;;;17.63;3.47;;;16.00;99.90;;;;;;5131050;28;20448;-77
2023/09/26 00:58:16;;;;;;;16.60;3.97;;;16.00;99.90;;;;;;5131562;28;20042;-77
2023/09/26 01:00:42;;;;;;;18.15;3.60;;;16.00;99.90;;;;;;5130825;28;20026;-78
2023/09/26 01:03:08;;;;;;;13.82;3.63;;;16.00;99.90;;;;;;5114384;27;20034;-78
2023/09/26 01:05:36;;;;;;;16.60;3.85;;;15.90;99.90;;;;;;5134920;27;20031;-78
2023/09/26 01:08:03;;;;;;;17.73;3.35;;;15.90;99.90;;;;;;5134906;27;20142;-78
2023/09/26 01:10:29;;;;;;;18.63;3.50;;;15.90;99.90;;;;;;5134541;27;20034;-78
2023/09/26 01:12:55;;;;;;;15.00;3.42;;;15.90;99.90;;;;;;5134913;27;20027;-77
2023/09/26 01:15:36;;;;;;;14.23;3.22;;;15.90;99.90;;;;;;5116311;27;20148;-77
2023/09/26 01:18:13;;;;;;;11.82;3.45;;;15.90;99.90;;;;;;5135514;27;20058;-77
2023/09/26 01:20:43;;;;;;;12.15;3.60;;;15.90;99.90;;;;;;5134268;27;20057;-77
2023/09/26 01:23:14;;;;;;;14.27;3.47;;;15.80;99.90;;;;;;5135056;27;20397;-77
2023/09/26 01:25:41;;;;;;;16.00;3.40;;;15.80;99.90;;;;;;5134203;27;20337;-78
2023/09/26 01:28:08;;;;;;;16.23;3.70;;;15.70;99.90;;;;;;5135094;27;20409;-77
2023/09/26 01:30:39;;;;;;;15.57;3.40;;;15.70;99.90;;;;;;5135587;27;20118;-78
2023/09/26 01:33:16;;;;;;;19.25;3.85;;;15.60;99.90;;;;;;5136922;27;20163;-78
2023/09/26 01:35:43;;;;;;;15.20;3.03;;;15.60;99.90;;;;;;5136191;27;20023;-77
2023/09/26 01:38:09;;;;;;;14.93;3.47;;;15.60;99.90;;;;;;5118341;27;20023;-77
2023/09/26 01:40:35;;;;;;;13.88;3.33;;;15.60;99.90;;;;;;5136804;27;20479;-78
2023/09/26 01:43:01;;;;;;;16.45;4.28;;;15.60;99.90;;;;;;5118768;27;20066;-78
2023/09/26 01:45:27;;;;;;;12.88;3.17;;;15.60;99.90;;;;;;5136912;27;20112;-78
2023/09/26 01:47:52;;;;;;;11.75;3.20;;;15.60;99.90;;;;;;5135807;27;20514;-77
2023/09/26 01:50:20;;;;;;;22.13;3.65;;;15.60;99.90;;;;;;5135623;27;20036;-77
2023/09/26 01:52:46;;;;;;;12.80;4.07;;;15.60;99.90;;;;;;5115635;27;20053;-77
2023/09/26 01:55:21;;;;;;;16.55;3.55;;;15.60;99.90;;;;;;5134781;27;20062;-77
2023/09/26 01:57:48;;;;;;;16.83;3.53;;;15.60;99.90;;;;;;5134343;27;20035;-77
2023/09/26 02:00:15;;;;;;;15.57;4.45;;;15.60;99.90;;;;;;5134398;27;20443;-77
2023/09/26 02:02:43;;;;;;;15.30;3.67;;;15.60;99.90;;;;;;5134074;27;20438;-77
2023/09/26 02:05:12;;;;;;;13.25;3.97;;;15.60;99.90;;;;;;5134540;27;20024;-77
2023/09/26 02:07:38;;;;;;;14.30;3.10;;;15.60;99.90;;;;;;5133605;27;20471;-77
2023/09/26 02:10:05;;;;;;;13.43;3.50;;;15.50;99.90;;;;;;5134444;27;20098;-76
2023/09/26 02:12:33;;;;;;;16.33;3.75;;;15.50;99.90;;;;;;5134456;27;20035;-77
2023/09/26 02:15:01;;;;;;;17.63;4.07;;;15.50;99.90;;;;;;5133765;27;20072;-77
2023/09/26 02:17:27;;;;;;;15.77;4.13;;;15.50;99.90;;;;;;5134275;27;20039;-77
2023/09/26 02:19:52;;;;;;;16.33;3.40;;;15.50;99.90;;;;;;5134120;27;20031;-78
2023/09/26 02:22:18;;;;;;;12.68;3.85;;;15.50;99.90;;;;;;5134705;27;20023;-77
2023/09/26 02:24:44;;;;;;;12.70;3.80;;;15.50;99.90;;;;;;5134280;27;20030;-78
2023/09/26 02:27:10;;;;;;;16.13;3.60;;;15.50;99.90;;;;;;5133854;27;20094;-78
2023/09/26 02:29:36;;;;;;;13.88;3.17;;;15.50;99.90;;;;;;5133438;27;20023;-78
2023/09/26 02:32:02;;;;;;;19.48;3.80;;;15.50;99.90;;;;;;5133738;27;20493;-77
2023/09/26 02:34:27;;;;;;;17.33;4.38;;;15.50;99.90;;;;;;5134158;27;20375;-76
2023/09/26 02:36:53;;;;;;;19.55;3.50;;;15.50;99.90;;;;;;5133123;27;20051;-77
2023/09/26 02:39:19;;;;;;;23.15;4.10;;;15.40;99.90;;;;;;5133723;27;20129;-77
2023/09/26 02:41:44;;;;;;;17.60;3.72;;;15.40;99.90;;;;;;5132967;27;20035;-77
2023/09/26 02:44:10;;;;;;;13.65;3.85;;;15.40;99.90;;;;;;5133629;27;20107;-77
2023/09/26 02:46:36;;;;;;;15.70;3.60;;;15.40;99.90;;;;;;5133193;27;20031;-78
2023/09/26 02:49:02;;;;;;;15.70;3.13;;;15.50;99.90;;;;;;5133774;27;20392;-77
2023/09/26 02:51:28;;;;;;;15.23;3.35;;;15.50;99.90;;;;;;5134214;27;20031;-77
2023/09/26 02:53:53;;;;;;;13.13;3.13;;;15.50;99.90;;;;;;5133446;27;20076;-77
2023/09/26 02:56:19;;;;;;;16.63;3.35;;;15.50;99.90;;;;;;5133630;27;20028;-76
2023/09/26 02:58:45;;;;;;;20.20;3.33;;;15.50;99.90;;;;;;5133069;27;20031;-76
2023/09/26 03:01:18;;;;;;;8.98;2.53;;;15.50;99.90;;;;;;5114854;27;20034;-77
2023/09/26 03:03:43;;;;;;;17.23;3.83;;;15.50;99.90;;;;;;5132156;27;20520;-77
2023/09/26 03:06:09;;;;;;;14.25;3.28;;;15.50;99.90;;;;;;5133248;27;20019;-78
2023/09/26 03:08:35;;;;;;;12.95;3.03;;;15.50;99.90;;;;;;5132929;27;20031;-76
2023/09/26 03:11:01;;;;;;;17.63;3.35;;;15.50;99.90;;;;;;5132552;27;20045;-76
2023/09/26 03:13:33;;;;;;;14.43;3.15;;;15.50;99.90;;;;;;5133218;27;20030;-75
2023/09/26 03:15:59;;;;;;;12.20;3.55;;;15.50;99.90;;;;;;5132594;27;20053;-76
2023/09/26 03:18:26;;;;;;;10.90;2.85;;;15.50;99.90;;;;;;5133227;27;20198;-76
2023/09/26 03:20:52;;;;;;;15.93;3.47;;;15.60;99.90;;;;;;5132247;27;20426;-76
2023/09/26 03:23:21;;;;;;;9.85;2.28;;;15.60;99.90;;;;;;5132556;27;20328;-76
2023/09/26 03:25:47;;;;;;;8.98;2.80;;;15.60;99.90;;;;;;5131522;27;20061;-77
2023/09/26 03:28:13;;;;;;;20.40;2.90;;;15.70;99.90;;;;;;5132532;27;20023;-76
2023/09/26 03:30:44;;;;;;;16.58;2.70;;;15.70;99.90;;;;;;5132160;27;20046;-77
2023/09/26 03:33:10;;;;;;;12.88;3.08;;;15.70;99.90;;;;;;5133054;27;20054;-76
2023/09/26 03:35:36;;;;;;;11.43;2.38;;;15.70;99.90;;;;;;5132666;27;20027;-76
2023/09/26 03:38:02;;;;;;;11.35;2.10;;;15.70;99.90;;;;;;5131961;27;20168;-76
2023/09/26 03:40:28;;;;;;;10.90;2.20;;;15.70;99.90;;;;;;5132545;27;20076;-76
2023/09/26 03:42:54;;;;;;;9.43;2.30;;;15.70;99.90;;;;;;5132000;27;20087;-76
2023/09/26 03:45:21;;;;;;;12.25;2.55;;;15.70;99.90;;;;;;5114001;27;20023;-77
2023/09/26 03:47:47;;;;;;;7.97;2.03;;;15.70;99.90;;;;;;5131648;27;20177;-78
2023/09/26 03:50:13;;;;;;;10.95;2.08;;;15.70;99.90;;;;;;5132853;27;20059;-77
2023/09/26 03:52:38;;;;;;;10.07;2.40;;;15.70;99.90;;;;;;5113809;27;20110;-77
2023/09/26 03:55:05;;;;;;;10.32;2.28;;;15.80;99.90;;;;;;5113425;27;20048;-76
2023/09/26 03:57:32;;;;;;;12.38;2.42;;;15.80;99.90;;;;;;5132060;27;20156;-76
2023/09/26 03:59:57;;;;;;;7.63;2.35;;;15.80;99.90;;;;;;5131977;27;20413;-79
2023/09/26 04:02:23;;;;;;;11.05;2.40;;;15.80;99.90;;;;;;5131949;27;20044;-77
2023/09/26 04:04:49;;;;;;;10.23;2.63;;;15.80;99.90;;;;;;5131205;27;20023;-77
2023/09/26 04:07:14;;;;;;;8.88;2.50;;;15.90;99.90;;;;;;5131678;27;20028;-76
2023/09/26 04:09:40;;;;;;;9.30;2.20;;;15.90;99.90;;;;;;5131693;27;20030;-77
2023/09/26 04:12:06;;;;;;;14.07;2.55;;;15.90;99.90;;;;;;5131611;27;20368;-77
2023/09/26 04:14:32;;;;;;;10.02;2.42;;;15.90;99.90;;;;;;5131700;27;20035;-75
2023/09/26 04:16:58;;;;;;;11.35;2.60;;;15.90;99.90;;;;;;5131263;27;20062;-77
2023/09/26 04:19:24;;;;;;;9.55;2.47;;;15.90;99.90;;;;;;5131742;27;20101;-77
2023/09/26 04:21:52;;;;;;;10.48;2.53;;;15.90;99.90;;;;;;5131331;27;20023;-77
2023/09/26 04:24:19;;;;;;;11.73;2.40;;;15.90;99.90;;;;;;5131602;27;20110;-78
2023/09/26 04:26:45;;;;;;;11.95;2.92;;;15.90;99.90;;;;;;5131262;27;20348;-78
2023/09/26 04:29:11;;;;;;;12.75;2.22;;;15.80;99.90;;;;;;5132030;27;20373;-78
2023/09/26 04:31:37;;;;;;;15.20;3.05;;;15.80;99.90;;;;;;5131651;27;20031;-78
2023/09/26 04:34:03;;;;;;;8.75;2.90;;;15.80;99.90;;;;;;5130620;27;20103;-79
2023/09/26 04:36:29;;;;;;;12.82;2.50;;;15.80;99.90;;;;;;5131421;27;20387;-77
2023/09/26 04:38:55;;;;;;;10.40;2.75;;;15.80;99.90;;;;;;5130752;27;20409;-77
2023/09/26 04:41:22;;;;;;;13.15;3.10;;;15.80;99.90;;;;;;5131442;27;20035;-78
2023/09/26 04:43:47;;;;;;;15.02;2.85;;;15.80;99.90;;;;;;5130438;28;20055;-78
2023/09/26 04:46:14;;;;;;;11.60;2.97;;;15.70;99.90;;;;;;5131741;28;20061;-78
2023/09/26 04:48:40;;;;;;;10.95;2.70;;;15.70;99.90;;;;;;5112627;28;20142;-78
2023/09/26 04:51:14;;;;;;;15.13;3.42;;;15.70;99.90;;;;;;5131062;28;20126;-78
2023/09/26 04:53:40;;;;;;;11.77;3.17;;;15.70;99.90;;;;;;5131383;28;20347;-77
2023/09/26 04:56:07;;;;;;;12.68;3.20;;;15.70;99.90;;;;;;5130542;28;20027;-79
2023/09/26 04:58:33;;;;;;;13.80;3.17;;;15.70;99.90;;;;;;5131043;28;20417;-76
2023/09/26 05:01:02;;;;;;;8.88;2.50;;;15.70;99.90;;;;;;5131120;28;20035;-77
2023/09/26 05:03:28;;;;;;;10.70;2.78;;;15.70;99.90;;;;;;5112666;28;20072;-77
2023/09/26 05:05:54;;;;;;;12.43;2.90;;;15.70;99.90;;;;;;5130420;28;20055;-77
2023/09/26 05:08:20;;;;;;;12.00;3.10;;;15.70;99.90;;;;;;5130979;28;20454;-77
2023/09/26 05:10:48;;;;;;;14.73;3.10;;;15.70;99.90;;;;;;5130897;28;20035;-77
2023/09/26 05:13:15;;;;;;;15.30;2.95;;;15.70;99.90;;;;;;5131009;28;20056;-77
2023/09/26 05:15:40;;;;;;;10.30;2.50;;;15.80;99.90;;;;;;5131187;28;20030;-77
2023/09/26 05:18:06;;;;;;;11.77;2.70;;;15.80;99.90;;;;;;5130318;28;20031;-77
2023/09/26 05:20:32;;;;;;;15.85;3.25;;;15.80;99.90;;;;;;5131077;28;20379;-77
2023/09/26 05:23:00;;;;;;;10.40;2.78;;;15.80;99.90;;;;;;5130375;28;20019;-77
2023/09/26 05:25:26;;;;;;;12.43;2.83;;;15.80;99.90;;;;;;5130992;28;20027;-77
2023/09/26 05:27:52;;;;;;;9.88;2.10;;;15.80;99.90;;;;;;5130176;28;20058;-77
2023/09/26 05:30:18;;;;;;;12.52;3.28;;;15.90;99.90;;;;;;5130549;28;20146;-77
2023/09/26 05:32:44;;;;;;;12.80;2.88;;;15.80;99.90;;;;;;5130751;28;20425;-78
2023/09/26 05:35:10;;;;;;;10.07;3.03;;;15.80;99.90;;;;;;5130423;28;20031;-78
2023/09/26 05:37:37;;;;;;;12.65;2.63;;;15.90;99.90;;;;;;5130869;28;20027;-78
2023/09/26 05:40:09;;;;;;;14.95;2.97;;;15.90;99.90;;;;;;5130238;28;20026;-79
2023/09/26 05:42:39;;;;;;;10.25;2.90;;;16.00;99.90;;;;;;5130997;28;20063;-77
2023/09/26 05:45:07;;;;;;;17.95;3.53;;;16.00;99.90;;;;;;5130702;28;20031;-78
2023/09/26 05:47:32;;;;;;;11.65;3.30;;;16.10;99.90;;;;;;5130463;28;20023;-77
2023/09/26 05:49:58;;;;;;;11.65;3.03;;;16.00;99.90;;;;;;5133946;27;20425;-78
2023/09/26 05:52:24;;;;;;;11.70;3.22;;;16.10;99.90;;;;;;5134345;27;20076;-77
2023/09/26 05:54:50;;;;;;;12.63;3.10;;;16.10;99.90;;;;;;5133545;27;20416;-78
2023/09/26 05:57:16;;;;;;;16.08;3.13;;;16.20;99.90;;;;;;5134339;27;20109;-78
2023/09/26 05:59:42;;;;;;;17.73;3.63;;;16.20;99.90;;;;;;5134222;27;20034;-77
2023/09/26 06:02:15;;;;;;;14.82;3.75;;;16.20;99.90;;;;;;5133305;27;20027;-77
2023/09/26 06:04:44;;;;;;;11.35;2.78;;;16.20;99.90;;;;;;5134137;27;20062;-77
2023/09/26 06:07:10;;;;;;;15.77;2.88;;;16.20;99.90;;;;;;5133476;27;20027;-77
2023/09/26 06:09:37;;;;;;;15.55;3.65;;;16.30;99.90;;;;;;5133966;27;20478;-77
2023/09/26 06:12:04;;;;;;;13.63;2.85;;;16.30;99.90;;;;;;5133312;27;20425;-77
2023/09/26 06:14:33;;;;;;;16.50;3.00;;;16.30;99.90;;;;;;5133542;27;20027;-77
2023/09/26 06:16:59;;;;;;;9.63;2.65;;;16.30;99.90;;;;;;5132888;27;20035;-78
2023/09/26 06:19:24;;;;;;;13.65;2.85;;;16.40;99.90;;;;;;5133637;27;20031;-78
2023/09/26 06:21:50;;;;;;;10.15;2.95;;;16.30;99.90;;;;;;5132958;27;20031;-79
2023/09/26 06:24:16;;;;;;;10.25;2.35;;;16.20;99.90;;;;;;5133966;27;20042;-78
2023/09/26 06:26:41;;;;;;;8.05;2.40;;;16.10;99.90;;;;;;5134264;27;20026;-76
2023/09/26 06:29:07;;;;;;;11.27;2.83;;;16.10;99.90;;;;;;5114414;27;20023;-76
2023/09/26 06:31:33;;;;;;;8.75;2.45;;;15.90;99.90;;;;;;5133855;27;20058;-74
2023/09/26 06:34:01;;;;;;;11.23;2.20;;;15.80;99.90;;;;;;5132803;27;20072;-76
2023/09/26 06:36:30;;;;;;;10.10;2.20;;;15.70;99.90;;;;;;5133322;27;20022;-76
2023/09/26 06:38:57;;;;;;;8.32;2.22;;;15.60;99.90;;;;;;5132833;27;20027;-77
2023/09/26 06:41:23;;;;;;;7.88;2.30;;;15.50;99.90;;;;;;5133534;27;20462;-76
2023/09/26 06:43:49;;;;;;;6.50;1.63;;;15.50;99.90;;;;;;5133442;27;20037;-77
2023/09/26 06:46:15;;;;;;;5.22;1.88;;;15.40;99.90;;;;;;5132645;27;20144;-80
2023/09/26 06:48:43;;;;;;;3.50;1.60;;;15.30;99.90;;;;;;5114559;27;20063;-81
2023/09/26 06:51:09;;;;;;;6.60;2.03;;;15.20;99.90;;;;;;5133374;27;20042;-77
2023/09/26 06:53:36;;;;;;;5.97;2.15;;;15.20;99.90;;;;;;5133178;27;20051;-76
2023/09/26 06:56:07;;;;;;;5.25;1.60;;;15.10;99.90;;;;;;5132296;27;20444;-77
2023/09/26 06:58:35;;;;;;;4.53;1.50;;;15.10;99.90;;;;;;5114632;27;20055;-77
2023/09/26 07:01:00;;;;;;;8.30;1.83;;;15.00;99.90;;;;;;5131326;27;20110;-77
2023/09/26 07:03:27;;;;;;;6.45;1.65;;;15.00;99.90;;;;;;5132944;27;20110;-77
2023/09/26 07:05:54;;;;;;;4.25;1.40;;;14.90;99.90;;;;;;5132508;27;20050;-78
2023/09/26 07:08:20;;;;;;;2.78;1.40;;;14.90;99.90;;;;;;5114270;27;20028;-77
2023/09/26 07:10:46;;;;;;;3.67;1.38;;;14.90;99.90;;;;;;5132511;27;20160;-75
2023/09/26 07:13:13;;;;;;;3.00;1.17;;;14.90;99.90;;;;;;5131953;27;20088;-76
2023/09/26 07:15:40;;;;;;;4.30;1.10;;;14.90;99.90;;;;;;5133925;27;20042;-76
2023/09/26 07:18:09;;;;;;;3.83;1.02;;;14.90;99.90;;;;;;5140287;27;20027;-76
2023/09/26 07:20:36;;;;;;;4.05;1.17;;;14.90;99.90;;;;;;5141437;27;20031;-75
2023/09/26 07:23:03;;;;;;;4.28;1.35;;;14.90;99.90;;;;;;5141565;27;20082;-76
2023/09/26 07:25:29;;;;;;;3.65;1.30;;;14.90;99.90;;;;;;5141084;27;20027;-76
2023/09/26 07:27:55;;;;;;;3.72;1.40;;;14.90;99.90;;;;;;5140677;27;20034;-77
2023/09/26 07:30:21;;;;;;;3.15;1.10;;;15.00;99.90;;;;;;5141468;27;20099;-77
2023/09/26 07:32:47;;;;;;;4.38;1.42;;;15.00;99.90;;;;;;5141045;27;20042;-77
2023/09/26 07:35:13;;;;;;;4.72;1.08;;;15.10;99.90;;;;;;5132375;27;20110;-77
2023/09/26 07:37:39;;;;;;;2.60;0.98;;;15.10;99.90;;;;;;5132522;27;20111;-76
2023/09/26 07:40:08;;;;;;;3.08;1.15;;;15.00;99.90;;;;;;5131566;27;20059;-78
2023/09/26 07:42:35;;;;;;;3.50;1.13;;;15.10;99.90;;;;;;5132472;27;20026;-77
2023/09/26 07:45:01;;;;;;;4.85;1.40;;;15.10;99.90;;;;;;5132077;27;20046;-78
2023/09/26 07:47:27;;;;;;;3.72;1.30;;;15.10;99.90;;;;;;5130809;27;20425;-77
2023/09/26 07:49:53;;;;;;;4.68;1.48;;;15.10;99.90;;;;;;5132538;27;20035;-77
2023/09/26 07:52:19;;;;;;;5.15;1.50;;;15.10;99.90;;;;;;5132253;27;20035;-78
2023/09/26 07:54:45;;;;;;;5.15;1.30;;;15.10;99.90;;;;;;5132550;27;20046;-80
2023/09/26 07:57:11;;;;;;;6.20;1.60;;;15.10;99.90;;;;;;5131647;27;20020;-76
2023/09/26 07:59:38;;;;;;;6.38;1.20;;;15.10;99.90;;;;;;5132401;27;20433;-78
2023/09/26 08:02:03;;;;;;;4.75;1.33;;;15.20;99.90;;;;;;5131602;27;20345;-78
2023/09/26 08:04:29;;;;;;;4.65;1.10;;;15.20;99.90;;;;;;5131918;27;20019;-78
2023/09/26 08:06:55;;;;;;;5.45;1.20;;;15.20;99.90;;;;;;5131460;27;20061;-79
2023/09/26 08:09:20;;;;;;;4.32;1.52;;;15.20;99.90;;;;;;5131976;27;20027;-78
2023/09/26 08:11:46;;;;;;;6.15;1.40;;;15.10;99.90;;;;;;5131685;27;20034;-77
2023/09/26 08:14:12;;;;;;;4.43;1.13;;;15.10;99.90;;;;;;5131353;27;20452;-77
2023/09/26 08:16:38;;;;;;;4.93;0.93;;;15.10;99.90;;;;;;5113324;27;20019;-77
2023/09/26 08:19:03;;;;;;;4.13;1.27;;;15.00;99.90;;;;;;5131286;27;20102;-77
2023/09/26 08:21:29;;;;;;;4.38;1.50;;;14.90;99.90;;;;;;5131909;27;20038;-77
2023/09/26 08:23:56;;;;;;;2.45;1.23;;;14.80;99.90;;;;;;5132237;27;20027;-77
2023/09/26 08:26:22;;;;;;;4.53;1.17;;;14.80;99.90;;;;;;5131403;27;20475;-76
2023/09/26 08:28:48;;;;;;;3.10;1.08;;;14.70;99.90;;;;;;5131640;27;20023;-76
2023/09/26 08:31:15;;;;;;;3.05;1.08;;;14.70;99.90;;;;;;5130611;27;20031;-77
2023/09/26 08:33:41;;;;;;;3.70;1.17;;;14.70;99.90;;;;;;5131783;27;20102;-77
2023/09/26 08:36:15;;;;;;;4.40;1.30;;;14.70;99.90;;;;;;5131901;27;20035;-77
2023/09/26 08:38:42;;;;;;;2.90;1.35;;;14.70;99.90;;;;;;5131371;27;20026;-75
2023/09/26 08:41:08;;;;;;;5.53;1.60;;;14.60;99.90;;;;;;5129961;27;20031;-77
2023/09/26 08:43:35;;;;;;;4.35;1.20;;;14.60;99.90;;;;;;5113262;28;20027;-76
2023/09/26 08:46:01;;;;;;;5.45;1.50;;;14.30;99.90;;;;;;5130559;28;20099;-76
2023/09/26 08:48:27;;;;;;;6.30;1.55;;;14.30;99.90;;;;;;5131017;28;20035;-76
2023/09/26 08:50:53;;;;;;;7.25;1.48;;;14.30;99.90;;;;;;5131682;28;20042;-76
2023/09/26 08:53:19;;;;;;;4.45;1.13;;;14.30;99.90;;;;;;5130726;28;20031;-76
2023/09/26 08:55:49;;;;;;;5.43;1.58;;;14.40;99.90;;;;;;5131266;28;20118;-75
2023/09/26 08:58:16;;;;;;;4.40;1.30;;;14.50;99.90;;;;;;5130540;28;20435;-76
2023/09/26 09:00:42;;;;;;;7.30;2.33;;;14.70;99.90;;;;;;5131659;28;20045;-77
2023/09/26 09:03:08;;;;;;;5.63;1.63;;;14.80;99.90;;;;;;5130730;28;20083;-77
2023/09/26 09:05:34;;;;;;;4.55;1.67;;;15.00;99.90;;;;;;5131637;28;20031;-77
2023/09/26 09:08:00;;;;;;;4.35;1.50;;;15.10;99.90;;;;;;5131337;28;20031;-77
2023/09/26 09:10:26;;;;;;;3.95;1.33;;;15.20;99.90;;;;;;5131635;28;20028;-77
2023/09/26 09:13:03;;;;;;;5.05;1.63;;;15.20;99.90;;;;;;5131173;28;20030;-77
2023/09/26 09:15:30;;;;;;;6.63;1.65;;;15.20;99.90;;;;;;5131581;28;20029;-77
2023/09/26 09:17:57;;;;;;;8.38;1.92;;;15.20;99.90;;;;;;5131382;28;20019;-77
2023/09/26 09:20:34;;;;;;;7.47;1.88;;;15.20;99.90;;;;;;5112681;28;20023;-77
2023/09/26 09:23:05;;;;;;;4.05;1.27;;;15.30;99.90;;;;;;5131181;27;20379;-78
2023/09/26 09:25:38;;;;;;;6.28;1.40;;;15.30;99.90;;;;;;5135182;27;20076;-76
2023/09/26 09:28:07;;;;;;;6.13;1.70;;;15.40;99.90;;;;;;5116537;27;20062;-76
2023/09/26 09:30:42;;;;;;;4.75;1.77;;;15.50;99.90;;;;;;5135288;27;20023;-76
2023/09/26 09:33:09;;;;;;;5.13;1.70;;;15.60;99.90;;;;;;5134650;27;20050;-76
2023/09/26 09:35:39;;;;;;;10.68;2.10;;;15.50;99.90;;;;;;5135518;27;20031;-76
2023/09/26 09:38:08;;;;;;;3.78;1.42;;;15.60;99.90;;;;;;5116121;27;20471;-76
2023/09/26 09:40:34;;;;;;;3.03;1.30;;;15.60;99.90;;;;;;5117280;27;20039;-75
2023/09/26 09:43:00;;;;;;;7.25;2.00;;;15.60;99.90;;;;;;5135245;27;20046;-78
2023/09/26 09:45:30;;;;;;;7.20;1.70;;;15.70;99.90;;;;;;5134350;27;20019;-75
2023/09/26 09:48:01;;;;;;;6.57;2.17;;;15.80;99.90;;;;;;5134789;27;20122;-78
2023/09/26 09:50:30;;;;;;;6.35;1.58;;;15.80;99.90;;;;;;5135702;27;20144;-76
2023/09/26 09:53:01;;;;;;;6.82;1.90;;;15.90;99.90;;;;;;5134816;27;20023;-76
2023/09/26 09:55:38;;;;;;;7.68;1.80;;;16.00;99.90;;;;;;5134798;27;20031;-76
2023/09/26 09:58:09;;;;;;;5.97;1.30;;;16.10;99.90;;;;;;5133984;27;20023;-76
2023/09/26 10:00:40;;;;;;;6.32;1.67;;;16.10;99.90;;;;;;5135105;27;20042;-76
2023/09/26 10:03:06;;;;;;;12.82;2.13;;;16.20;99.90;;;;;;5134600;27;20027;-76
2023/09/26 10:05:34;;;;;;;7.53;1.50;;;16.30;99.90;;;;;;5134775;27;20027;-77
2023/09/26 10:08:02;;;;;;;9.85;1.63;;;16.30;99.90;;;;;;5134693;27;20023;-77
2023/09/26 10:10:28;;;;;;;6.90;1.30;;;16.30;99.90;;;;;;5115442;27;20023;-76
2023/09/26 10:12:54;;;;;;;7.80;2.53;;;16.30;99.90;;;;;;5134171;27;20015;-76
2023/09/26 10:15:20;;;;;;;3.08;1.25;;;16.40;99.90;;;;;;5133328;27;20030;-75
2023/09/26 10:17:51;;;;;;;9.40;1.65;;;16.50;99.90;;;;;;5134305;27;20023;-76
2023/09/26 10:20:17;;;;;;;7.95;1.60;;;16.50;99.90;;;;;;5133625;27;20023;-76
2023/09/26 10:22:44;;;;;;;6.72;1.77;;;16.50;99.90;;;;;;5133990;27;20084;-76
2023/09/26 10:25:23;;;;;;;3.75;1.85;;;16.50;99.90;;;;;;5133664;27;20027;-77
2023/09/26 10:27:50;;;;;;;5.18;2.13;;;16.60;99.90;;;;;;5133661;27;20440;-76
2023/09/26 10:30:18;;;;;;;7.45;2.22;;;16.70;99.90;;;;;;5133363;27;20027;-77
2023/09/26 10:32:45;;;;;;;6.40;1.77;;;16.70;99.90;;;;;;5133417;27;20122;-75
2023/09/26 10:35:14;;;;;;;6.38;1.83;;;16.70;99.90;;;;;;5132546;27;20019;-76
2023/09/26 10:37:48;;;;;;;6.95;1.80;;;16.70;99.90;;;;;;5133508;27;20023;-76
2023/09/26 10:40:15;;;;;;;8.82;1.77;;;16.70;99.90;;;;;;5133146;27;20349;-76
2023/09/26 10:42:48;;;;;;;5.97;1.90;;;16.60;99.90;;;;;;5133090;27;20027;-76
2023/09/26 10:45:15;;;;;;;7.38;1.85;;;16.50;99.90;;;;;;5132662;27;20073;-76
2023/09/26 10:47:41;;;;;;;6.43;2.20;;;16.50;99.90;;;;;;5133384;27;20015;-75
2023/09/26 10:50:09;;;;;;;8.48;1.80;;;16.60;99.90;;;;;;5115190;27;20043;-76
2023/09/26 10:52:35;;;;;;;6.47;2.08;;;16.70;99.90;;;;;;5114698;27;20085;-76
2023/09/26 10:55:04;;;;;;;10.02;2.00;;;16.80;99.90;;;;;;5133141;27;20424;-76
2023/09/26 10:57:30;;;;;;;7.30;1.95;;;16.80;99.90;;;;;;5132625;27;20052;-76
2023/09/26 10:59:56;;;;;;;9.20;2.03;;;16.80;99.90;;;;;;5132894;27;20031;-76
2023/09/26 11:02:22;;;;;;;7.60;2.20;;;16.70;99.90;;;;;;5132646;27;20432;-76
2023/09/26 11:04:48;;;;;;;9.52;2.00;;;16.70;99.90;;;;;;5132603;27;20373;-76
2023/09/26 11:07:15;;;;;;;10.23;2.28;;;16.80;99.90;;;;;;5132169;27;20098;-76
2023/09/26 11:09:44;;;;;;;6.53;2.17;;;16.80;99.90;;;;;;5132781;27;20023;-76
2023/09/26 11:12:12;;;;;;;10.75;2.13;;;16.90;99.90;;;;;;5132217;27;20132;-76
2023/09/26 11:14:38;;;;;;;9.52;1.83;;;16.90;99.90;;;;;;5113834;27;20023;-76
2023/09/26 11:17:07;;;;;;;9.85;2.15;;;16.90;99.90;;;;;;5132451;27;20479;-77
2023/09/26 11:19:34;;;;;;;4.72;1.77;;;17.00;99.90;;;;;;5132133;27;20023;-76
2023/09/26 11:22:00;;;;;;;11.27;2.45;;;17.00;99.90;;;;;;5112369;28;20418;-76
2023/09/26 11:24:31;;;;;;;9.63;2.50;;;17.10;99.90;;;;;;5110783;28;20035;-76
2023/09/26 11:27:04;;;;;;;9.90;2.47;;;17.10;99.90;;;;;;5111921;28;20068;-76
2023/09/26 11:29:31;;;;;;;9.55;1.90;;;17.10;99.90;;;;;;5111028;28;20103;-77
2023/09/26 11:31:58;;;;;;;8.77;1.67;;;17.10;99.90;;;;;;5111572;28;20032;-77
2023/09/26 11:34:24;;;;;;;8.32;1.77;;;17.00;99.90;;;;;;5111166;28;20051;-77
2023/09/26 11:36:51;;;;;;;9.60;1.70;;;16.90;99.90;;;;;;5111311;28;20388;-78
2023/09/26 11:39:21;;;;;;;10.55;1.88;;;17.00;99.90;;;;;;5110469;28;20093;-75
2023/09/26 11:42:03;;;;;;;5.65;1.67;;;16.90;99.90;;;;;;5111486;28;20357;-76
2023/09/26 11:44:29;;;;;;;6.88;1.83;;;16.90;99.90;;;;;;5111347;28;20121;-76
2023/09/26 11:46:56;;;;;;;6.75;1.70;;;16.80;99.90;;;;;;5111158;28;20102;-77
2023/09/26 11:49:23;;;;;;;5.32;1.75;;;16.80;99.90;;;;;;5111243;28;20134;-78
2023/09/26 11:51:51;;;;;;;9.73;1.83;;;16.90;99.90;;;;;;5112021;28;20080;-75
2023/09/26 11:54:17;;;;;;;8.02;1.70;;;17.00;99.90;;;;;;5111068;28;20077;-77
2023/09/26 11:56:47;;;;;;;8.55;2.28;;;17.10;99.90;;;;;;5111797;28;20426;-76
2023/09/26 11:59:14;;;;;;;5.03;1.30;;;17.20;99.90;;;;;;5110715;28;20039;-76
2023/09/26 12:01:44;;;;;;;6.60;1.90;;;17.30;99.90;;;;;;5111556;28;20477;-77
2023/09/26 12:04:13;;;;;;;7.03;1.77;;;17.40;99.90;;;;;;5110894;28;20027;-78
2023/09/26 12:06:42;;;;;;;6.38;1.38;;;17.60;99.90;;;;;;5111644;28;20028;-76
2023/09/26 12:09:17;;;;;;;6.72;1.40;;;17.70;99.90;;;;;;5092481;28;20028;-78
2023/09/26 12:11:44;;;;;;;4.85;1.30;;;17.70;99.90;;;;;;5111541;28;20024;-76
2023/09/26 12:14:10;;;;;;;7.63;1.33;;;17.80;99.90;;;;;;5110546;28;20020;-76
2023/09/26 12:16:36;;;;;;;4.88;1.73;;;17.90;99.90;;;;;;5111141;28;20035;-77
2023/09/26 12:19:01;;;;;;;9.50;1.83;;;17.80;99.90;;;;;;5111635;28;20032;-77
2023/09/26 12:21:27;;;;;;;6.50;1.60;;;17.90;99.90;;;;;;5110495;28;20581;-77
2023/09/26 12:23:53;;;;;;;5.97;1.38;;;17.90;99.90;;;;;;5111413;28;20020;-77
2023/09/26 12:26:19;;;;;;;5.53;1.70;;;17.80;99.90;;;;;;5110584;28;20016;-77
2023/09/26 12:28:45;;;;;;;9.32;1.73;;;17.80;99.90;;;;;;5111069;28;20039;-77
2023/09/26 12:31:10;;;;;;;8.52;1.60;;;17.70;99.90;;;;;;5091940;28;20032;-78
2023/09/26 12:33:36;;;;;;;6.28;1.90;;;17.70;99.90;;;;;;5092593;28;20146;-77
2023/09/26 12:36:02;;;;;;;8.88;1.60;;;17.60;99.90;;;;;;5110929;28;20024;-77
2023/09/26 12:38:28;;;;;;;9.18;1.80;;;17.70;99.90;;;;;;5110476;28;20076;-77
2023/09/26 12:40:54;;;;;;;6.65;1.45;;;17.90;99.90;;;;;;5110962;28;20028;-77
2023/09/26 12:43:19;;;;;;;6.82;1.73;;;18.00;99.90;;;;;;5110130;28;20118;-77